Central Sierra Snow Lab Weather observations

Data are for 10 minute period ending at time listed.
 Day   Time    Incoming  Reflected   Ave.   Ave.    Ave.    Vector  Max.    Ave.    Total    Snow   
  of    of      Solar     Solar      Air    Rel.    Wind    Wind    Wind   Baro.   Precip.   Depth  
Year   Day     Radiation Radiation   Temp.  Humid.  Speed   Dir.    Gust   Press.                   
2016   (PST)    Kw/m2     Kw/m2       F       %      mph     deg.    mph     mb.     in.      in.   
----------------------------------------------------------------------------------------------------
 178    0:00    0.000     999.000     49.9     62     2.3      26     3.4   796.60    9.62   -2.90  
 178    0:10    0.000     999.000     49.7     63     3.4      31     4.9   796.50    9.61   -2.90  
 178    0:20    0.000     999.000     49.8     64     3.3      29     4.7   796.50    9.61   -3.00  
 178    0:30    0.000     999.000     49.9     64     3.7      31     4.8   796.50    9.62   -3.10  
 178    0:40    0.000     999.000     50.0     65     4.6      29     5.4   796.40    9.61   -3.10  
 178    0:50    0.000     999.000     49.8     66     4.7      27     5.3   796.30    9.62   -3.00  
 178    1:00    0.000     999.000     49.6     67     4.9      28     5.5   796.20    9.62   -2.90  
 178    1:10    0.000     999.000     49.5     68     4.6      29     5.4   796.20    9.61   -3.00  
 178    1:20    0.000     999.000     49.3     69     4.5      29     5.5   796.20    9.61   -3.00  
 178    1:30    0.000     999.000     49.3     69     4.9      28     5.5   796.10    9.62   -3.00  
 178    1:40    0.000     999.000     49.1     70     4.5      27     5.0   796.20    9.62   -3.10  
 178    1:50    0.000     999.000     49.0     70     4.4      27     5.2   796.10    9.62   -3.10  
 178    2:00    0.000     999.000     48.8     71     3.9      26     4.5   796.10    9.61   -3.00  
 178    2:10    0.000     999.000     48.6     72     3.6      28     4.9   796.10    9.62   -3.00  
 178    2:20    0.000     999.000     48.5     72     2.7      30     4.7   796.00    9.62   -3.00  
 178    2:30    0.000     999.000     48.3     72     3.2      31     4.1   796.00    9.61   -3.00  
 178    2:40    0.000     999.000     48.2     72     2.6      28     3.6   796.10    9.61   -3.10  
 178    2:50    0.000     999.000     48.0     73     2.8      25     3.6   796.10    9.61   -3.10  
 178    3:00    0.000     999.000     47.8     73     2.3      18     3.5   796.20    9.62   -3.00  
 178    3:10    0.000     999.000     47.4     74     2.5      21     3.1   796.30    9.62   -3.00  
 178    3:20    0.000     999.000     47.2     74     3.6      25     5.1   796.20    9.61   -3.10  
 178    3:30    0.000     999.000     47.2     74     4.9      25     5.7   796.30    9.62   -3.10  
 178    3:40    0.000     999.000     47.0     75     4.2      30     5.3   796.30    9.61   -3.00  
 178    3:50    0.000     999.000     46.8     75     3.6      32     5.1   796.40    9.61   -3.00  
 178    4:00    0.000     999.000     46.8     75     2.9      26     4.5   796.40    9.62   -3.00  
 178    4:10    0.000     999.000     47.0     74     3.6      31     4.6   796.50    9.62   -3.10  
 178    4:20    0.000     999.000     46.4     77     3.6      30     4.3   796.40    9.62   -3.20  
 178    4:30    0.001     999.000     46.1     77     3.7      27     4.2   796.50    9.62   -3.10  
 178    4:40    0.002     999.000     45.9     77     3.2      30     4.7   796.50    9.62   -3.10  
 178    4:50    0.004     999.000     45.9     78     3.2      30     4.9   796.50    9.62   -3.10  
 178    5:00    0.005     999.000     45.8     78     2.3      32     4.6   796.50    9.62   -3.10  
 178    5:10    0.007     999.000     45.7     78     2.5      35     3.9   796.50    9.62   -3.10  
 178    5:20    0.008     999.000     45.6     78     1.7      37     2.7   796.60    9.62   -3.10  
 178    5:30    0.009     999.000     45.6     78     1.6      44     2.3   796.60    9.61   -3.10  
 178    5:40    0.010     999.000     45.8     76     1.6      44     2.4   796.60    9.61   -3.10  
 178    5:50    0.012     999.000     46.3     76     1.6      45     1.9   796.70    9.61   -3.10  
 178    6:00    0.015     999.000     46.8     76     1.6      58     2.8   796.70    9.61   -3.00  
 178    6:10    0.017     999.000     47.6     75     1.8      48     3.2   796.70    9.62   -3.00  
 178    6:20    0.019     999.000     48.6     74     1.6      54     2.4   796.80    9.62   -3.00  
 178    6:30    0.022     999.000     49.4     74     1.5      55     2.2   796.90    9.62   -3.00  
 178    6:40    0.166     999.000     50.6     72     1.4      54     2.3   796.90    9.62   -3.00  
 178    6:50    0.136     999.000     53.0     68     1.6      53     2.4   797.00    9.62   -3.10  
 178    7:00    0.239     999.000     56.0     63     1.4      30     2.5   797.00    9.62   -3.20  
 178    7:10    0.392     999.000     58.4     59     0.8      34     2.3   797.10    9.62   -3.30  
 178    7:20    0.424     999.000     60.7     56     1.0      40     1.7   797.10    9.62   -3.40  
 178    7:30    0.456     999.000     62.7     46     1.1      36     1.8   797.20    9.62   -3.80  
 178    7:40    0.488     999.000     64.1     37     1.0     307     3.5   797.20    9.61   -4.00  
 178    7:50    0.518     999.000     65.8     35     0.6     287     4.7   797.10    9.61   -4.30  
 178    8:00    0.549     999.000     66.8     36     0.6     182     3.7   797.20    9.62   -4.40  
 178    8:10    0.580     999.000     68.7     30     0.8     196     2.9   797.20    9.61   -4.50  
 178    8:20    0.609     999.000     69.9     27     1.3     219     4.8   797.30    9.61   -4.30  
 178    8:30    0.638     999.000     70.8     25     1.6     183     3.7   797.20    9.61   -4.20  
 178    8:40    0.664     999.000     70.9     23     1.8     191     5.4   797.10    9.61   -4.10  
 178    8:50    0.693     999.000     70.9     20     2.6     193     5.5   797.10    9.61   -4.20  
 178    9:00    0.717     999.000     70.8     18     2.6     175     5.9   797.10    9.61   -4.20  
 178    9:10    0.739     999.000     71.5     20     1.8     214     4.2   797.10    9.61   -4.40  
 178    9:20    0.760     999.000     72.2     18     2.5     229     6.9   797.10    9.61   -4.30  
 178    9:30    0.785     999.000     72.6     17     1.9     238     6.4   797.10    9.61   -4.50  
 178    9:40    0.806     999.000     73.0     17     1.9     237     7.4   797.10    9.61   -4.30  
 178    9:50    0.834     999.000     73.9     16     1.7     238     4.8   797.20    9.61   -4.30  
 178   10:00    0.844     999.000     73.7     15     2.9     254     8.0   797.20    9.61   -4.20  
 178   10:10    0.864     999.000     74.3     14     2.1     224     5.6   797.20    9.61   -4.30  
 178   10:20    0.882     999.000     74.9     13     3.2     186     8.3   797.20    9.61   -4.20  
 178   10:30    0.897     999.000     75.0     13     2.6     189     7.0   797.20    9.61   -4.10  
 178   10:40    0.913     999.000     75.2     13     2.8     190     7.6   797.20    9.61   -4.00  
 178   10:50    0.920     999.000     75.3     12     2.9     210     7.8   797.20    9.61   -4.20  
 178   11:00    0.931     999.000     76.1     13     2.7     205     7.7   797.20    9.61   -4.10  
 178   11:10    0.938     999.000     76.2     13     2.6     186     5.7   797.30    9.61   -4.10  
 178   11:20    0.946     999.000     75.7     15     2.5     239     5.9   797.30    9.61   -4.20  
 178   11:30    0.960     999.000     76.9     15     2.6     202     7.0   797.30    9.61   -4.20  
 178   11:40    0.899     999.000     77.2     15     3.1     192    10.7   797.30    9.61   -3.90  
 178   11:50    0.921     999.000     77.2     16     2.4     218     6.1   797.30    9.61   -4.00  
 178   12:00    0.955     999.000     77.2     17     3.0     207     7.0   797.40    9.61   -4.00  
 178   12:10    1.079     999.000     77.1     17     3.1     192     8.4   797.40    9.60   -4.10  
 178   12:20    1.119     999.000     77.8     18     3.4     206     8.1   797.30    9.61   -3.90  
 178   12:30    1.105     999.000     77.4     17     3.6     228     7.9   797.30    9.61   -4.00  
 178   12:40    1.092     999.000     77.9     18     2.9     217     5.6   797.30    9.61   -3.90  
 178   12:50    1.046     999.000     77.8     16     2.9     206     6.9   797.30    9.61   -3.80  
 178   13:00    0.836     999.000     77.1     15     3.6     233     9.5   797.20    9.61   -3.80  
 178   13:10    0.944     999.000     77.2     16     3.0     239    11.0   797.20    9.61   -3.60  
 178   13:20    0.929     999.000     77.5     18     3.3     242     7.9   797.30    9.60   -3.80  
 178   13:30    0.920     999.000     77.2     17     3.1     240     9.7   797.20    9.60   -3.70  
 178   13:40    0.921     999.000     77.5     15     3.6     264    13.1   797.20    9.61   -3.60  
 178   13:50    0.905     999.000     77.2     17     3.3     264    11.2   797.20    9.61   -3.70  
 178   14:00    0.889     999.000     76.5     18     3.2     226     7.0   797.20    9.60   -3.50  
 178   14:10    0.872     999.000     77.1     19     3.6     244     9.7   797.10    9.60   -3.50  
 178   14:20    0.855     999.000     76.5     18     4.0     269    10.1   797.20    9.61   -3.60  
 178   14:30    0.834     999.000     76.8     19     3.1     221     9.1   797.20    9.60   -3.60  
 178   14:40    0.817     999.000     76.2     19     4.0     292    10.7   797.20    9.60   -3.80  
 178   14:50    0.793     999.000     76.3     19     3.5     252     9.3   797.10    9.61   -3.60  
 178   15:00    0.775     999.000     76.6     19     4.4     301    13.1   797.10    9.60   -3.70  
 178   15:10    0.748     999.000     76.0     19     3.9     273     8.8   797.10    9.61   -3.70  
 178   15:20    0.721     999.000     75.8     20     4.0     249     9.6   797.10    9.60   -3.60  
 178   15:30    0.697     999.000     76.3     19     3.8     234     9.0   797.10    9.60   -3.60  
 178   15:40    0.668     999.000     76.2     19     3.6     278    11.4   797.10    9.60   -3.70  
 178   15:50    0.643     999.000     76.2     20     3.6     267    11.4   797.10    9.61   -3.80  
 178   16:00    0.614     999.000     76.1     20     3.0     285    13.8   797.10    9.61   -3.80  
 178   16:10    0.586     999.000     75.3     21     4.5     300    11.4   797.20    9.60   -3.60  
 178   16:20    0.553     999.000     75.6     23     3.2     230     7.7   797.20    9.60   -3.50  
 178   16:30    0.526     999.000     75.8     22     4.2     240    11.0   797.20    9.60   -3.60  
 178   16:40    0.498     999.000     74.6     23     5.1     277    13.3   797.20    9.60   -3.60  
 178   16:50    0.469     999.000     74.4     24     3.6     287    10.2   797.20    9.61   -3.70  
 178   17:00    0.439     999.000     74.8     24     4.1     273    10.4   797.20    9.61   -3.70  
 178   17:10    0.344     999.000     74.3     24     3.3     287     8.6   797.30    9.60   -3.70  
 178   17:20    0.297     999.000     72.9     25     3.4     252     9.1   797.30    9.61   -3.70  
 178   17:30    0.304     999.000     73.2     25     3.2     219     9.1   797.30    9.61   -3.80  
 178   17:40    0.302     999.000     72.8     26     3.3     222     9.1   797.40    9.60   -3.90  
 178   17:50    0.287     999.000     73.1     26     2.2     218     5.8   797.40    9.61   -4.00  
 178   18:00    0.235     999.000     72.6     25     2.8     242     9.1   797.50    9.61   -4.00  
 178   18:10    0.207     999.000     72.2     25     2.4     231     7.1   797.50    9.61   -4.00  
 178   18:20    0.202     999.000     72.2     26     2.3     237     8.4   797.60    9.61   -4.00  
 178   18:30    0.148     999.000     71.4     26     2.3     241     6.5   797.70    9.61   -3.60  
 178   18:40    0.045     999.000     70.1     28     2.6     244     6.4   797.70    9.60   -3.40  
 178   18:50    0.019     999.000     68.9     30     1.8     243     6.1   797.80    9.60   -3.30  
 178   19:00    0.013     999.000     67.7     32     1.1     260     3.8   797.90    9.60   -3.30  
 178   19:10    0.010     999.000     66.8     33     1.1     304     3.7   798.00    9.60   -3.40  
 178   19:20    0.007     999.000     65.3     38     1.1      45     2.0   798.10    9.60   -3.40  
 178   19:30    0.005     999.000     63.4     42     1.9      37     2.9   798.10    9.61   -3.30  
 178   19:40    0.003     999.000     61.8     47     2.0      30     2.8   798.20    9.61   -3.30  
 178   19:50    0.001     999.000     60.6     50     1.9      21     2.9   798.30    9.61   -3.20  
 178   20:00    0.000     999.000     59.4     52     2.1      18     3.0   798.30    9.61   -3.20  
 178   20:10    0.000     999.000     58.4     54     3.1      24     4.3   798.40    9.61   -3.10  
 178   20:20    0.000     999.000     57.5     56     3.1      26     4.0   798.50    9.61   -3.10  
 178   20:30    0.000     999.000     56.8     58     3.3      27     4.3   798.50    9.61   -3.00  
 178   20:40    0.000     999.000     56.1     59     1.5      29     2.9   798.60    9.60   -3.10  
 178   20:50    0.000     999.000     55.5     60     1.8      24     3.2   798.70    9.61   -3.10  
 178   21:00    0.000     999.000     54.8     61     2.3      30     3.5   798.70    9.61   -3.00  
 178   21:10    0.000     999.000     54.2     62     1.7      29     2.9   798.70    9.61   -3.10  
 178   21:20    0.000     999.000     53.6     62     1.7      30     2.6   798.80    9.61   -3.00  
 178   21:30    0.000     999.000     53.2     64     2.4      29     3.6   798.80    9.61   -3.00  
 178   21:40    0.000     999.000     52.7     65     2.7      30     3.6   798.80    9.61   -3.00  
 178   21:50    0.000     999.000     52.3     66     2.7      32     3.6   798.70    9.61   -3.00  
 178   22:00    0.000     999.000     51.9     66     1.8      38     3.1   798.70    9.61   -3.00  
 178   22:10    0.000     999.000     51.6     66     2.0      36     3.0   798.60    9.61   -3.00  
 178   22:20    0.000     999.000     51.2     64     2.0      33     4.6   798.60    9.61   -3.00  
 178   22:30    0.000     999.000     50.9     62     2.6      32     3.5   798.60    9.61   -3.00  
 178   22:40    0.000     999.000     50.5     62     1.6      40     2.9   798.50    9.61   -2.90  
 178   22:50    0.000     999.000     50.0     60     2.3      35     3.6   798.50    9.61   -2.90  
 178   23:00    0.000     999.000     49.6     59     2.7      33     3.9   798.50    9.61   -2.90  
 178   23:10    0.000     999.000     49.2     57     1.6      47     2.4   798.50    9.61   -2.90  
 178   23:20    0.000     999.000     49.1     56     1.5      42     2.0   798.50    9.61   -2.90  
 178   23:30    0.000     999.000     48.8     56     1.5      51     2.0   798.40    9.61   -2.80  
 178   23:40    0.000     999.000     48.7     54     1.9      40     3.3   798.40    9.61   -2.80  
 178   23:50    0.000     999.000     48.6     51     2.1      37     3.5   798.40    9.61   -2.80  

Return to Central Sierra Snow Lab graphs page.


Western Regional Climate Center,wrcc@dri.edu